createdAt,value
2024-05-09T00:00:30.518Z,10.93
2024-05-09T00:01:23.668Z,10.98
2024-05-09T00:02:23.808Z,11.14
2024-05-09T00:03:23.598Z,10.80
2024-05-09T00:04:23.657Z,10.58
2024-05-09T00:05:23.643Z,10.83
2024-05-09T00:06:23.523Z,10.88
2024-05-09T00:07:23.510Z,10.63
2024-05-09T00:08:23.656Z,10.91
2024-05-09T00:09:23.486Z,10.78
2024-05-09T00:10:32.627Z,10.70
2024-05-09T00:11:23.629Z,10.80
2024-05-09T00:12:23.533Z,10.59
2024-05-09T00:13:23.470Z,10.77
2024-05-09T00:14:23.560Z,10.80
2024-05-09T00:15:23.458Z,10.75
2024-05-09T00:16:23.453Z,10.80
2024-05-09T00:17:23.611Z,10.63
2024-05-09T00:18:23.666Z,10.70
2024-05-09T00:19:23.522Z,10.70
2024-05-09T00:20:28.593Z,10.67
2024-05-09T00:21:24.409Z,10.75
2024-05-09T00:22:23.351Z,10.85
2024-05-09T00:23:23.361Z,10.85
2024-05-09T00:24:23.354Z,11.09
2024-05-09T00:25:23.320Z,11.10
2024-05-09T00:26:23.380Z,10.90
2024-05-09T00:27:23.320Z,10.84
2024-05-09T00:28:23.306Z,11.05
2024-05-09T00:29:23.380Z,11.18
2024-05-09T00:30:31.649Z,10.83
2024-05-09T00:31:24.329Z,11.09
2024-05-09T00:32:23.391Z,10.99
2024-05-09T00:33:23.409Z,10.95
2024-05-09T00:34:23.306Z,11.02
2024-05-09T00:35:23.518Z,10.85
2024-05-09T00:36:23.210Z,11.05
2024-05-09T00:37:23.221Z,10.75
2024-05-09T00:38:23.252Z,11.02
2024-05-09T00:39:23.179Z,11.01
2024-05-09T00:40:31.117Z,10.93
2024-05-09T00:41:24.268Z,10.90
2024-05-09T00:42:23.151Z,10.99
2024-05-09T00:43:23.172Z,10.99
2024-05-09T00:44:23.253Z,10.78
2024-05-09T00:45:23.126Z,11.17
2024-05-09T00:46:23.112Z,10.98
2024-05-09T00:47:23.249Z,10.88
2024-05-09T00:48:23.207Z,10.81
2024-05-09T00:49:23.213Z,10.77
2024-05-09T00:50:29.918Z,10.99
2024-05-09T00:51:24.127Z,11.05
2024-05-09T00:52:23.038Z,11.02
2024-05-09T00:53:23.064Z,10.81
2024-05-09T00:54:23.103Z,10.80
2024-05-09T00:55:23.024Z,10.90
2024-05-09T00:56:23.047Z,10.75
2024-05-09T00:57:22.987Z,10.65
2024-05-09T00:58:23.022Z,10.72
2024-05-09T00:59:23.093Z,10.55
2024-05-09T01:00:31.133Z,10.51
2024-05-09T01:01:24.045Z,10.52
2024-05-09T01:02:23.101Z,10.12
2024-05-09T01:03:23.235Z,10.36
2024-05-09T01:04:22.952Z,10.23
2024-05-09T01:05:23.086Z,10.26
2024-05-09T01:06:22.889Z,10.29
2024-05-09T01:07:22.897Z,10.20
2024-05-09T01:08:22.892Z,9.93
2024-05-09T01:09:22.902Z,9.91
2024-05-09T01:10:28.299Z,9.74
2024-05-09T01:11:24.015Z,9.84
2024-05-09T01:12:22.871Z,9.91
2024-05-09T01:13:22.818Z,9.83
2024-05-09T01:14:22.903Z,9.73
2024-05-09T01:15:22.830Z,9.87
2024-05-09T01:16:22.821Z,9.70
2024-05-09T01:17:22.974Z,9.74
2024-05-09T01:18:22.906Z,9.70
2024-05-09T01:19:22.877Z,9.70
2024-05-09T01:20:31.879Z,9.60
2024-05-09T01:21:23.892Z,9.64
2024-05-09T01:22:22.726Z,9.64
2024-05-09T01:23:22.766Z,9.59
2024-05-09T01:24:22.729Z,9.34
2024-05-09T01:25:22.713Z,9.37
2024-05-09T01:26:22.695Z,9.17
2024-05-09T01:27:22.691Z,9.31
2024-05-09T01:28:22.671Z,9.39
2024-05-09T01:29:22.755Z,9.42
2024-05-09T01:30:31.256Z,9.39
2024-05-09T01:31:23.664Z,9.25
2024-05-09T01:32:22.788Z,9.23
2024-05-09T01:33:22.792Z,9.31
2024-05-09T01:34:22.689Z,9.35
2024-05-09T01:35:22.701Z,9.31
2024-05-09T01:36:22.583Z,9.17
2024-05-09T01:37:22.576Z,9.22
2024-05-09T01:38:22.610Z,9.16
2024-05-09T01:39:22.566Z,9.01
2024-05-09T01:40:29.275Z,9.25
2024-05-09T01:41:23.676Z,9.04
2024-05-09T01:42:22.543Z,9.20
2024-05-09T01:43:22.543Z,9.38
2024-05-09T01:44:22.638Z,9.35
2024-05-09T01:45:22.496Z,9.46
2024-05-09T01:46:22.485Z,9.64
2024-05-09T01:47:22.792Z,9.55
2024-05-09T01:48:22.624Z,9.73
2024-05-09T01:49:22.539Z,9.93
2024-05-09T01:50:28.930Z,9.81
2024-05-09T01:51:23.571Z,9.68
2024-05-09T01:52:22.418Z,9.70
2024-05-09T01:53:22.486Z,9.71
2024-05-09T01:54:22.409Z,9.50
2024-05-09T01:55:22.395Z,9.38
2024-05-09T01:56:22.427Z,9.57
2024-05-09T01:57:22.412Z,9.38
2024-05-09T01:58:22.354Z,9.17
2024-05-09T01:59:22.481Z,9.25
2024-05-09T02:00:33.191Z,9.31
2024-05-09T02:01:23.406Z,9.19
2024-05-09T02:02:22.417Z,9.34
2024-05-09T02:03:22.495Z,9.07
2024-05-09T02:04:22.482Z,9.09
2024-05-09T02:05:22.400Z,9.01
2024-05-09T02:06:22.287Z,8.80
2024-05-09T02:07:22.264Z,8.81
2024-05-09T02:08:22.478Z,8.81
2024-05-09T02:09:22.248Z,8.50
2024-05-09T02:10:26.570Z,8.81
2024-05-09T02:11:22.300Z,8.63
2024-05-09T02:12:22.383Z,8.68
2024-05-09T02:13:22.216Z,8.87
2024-05-09T02:14:22.249Z,8.81
2024-05-09T02:15:22.207Z,8.84
2024-05-09T02:16:22.213Z,8.87
2024-05-09T02:17:22.587Z,9.14
2024-05-09T02:18:22.397Z,9.25
2024-05-09T02:19:22.503Z,9.32
2024-05-09T02:20:30.579Z,9.20
2024-05-09T02:21:23.152Z,9.30
2024-05-09T02:22:22.106Z,9.14
2024-05-09T02:23:22.266Z,8.98
2024-05-09T02:24:22.101Z,9.05
2024-05-09T02:25:22.066Z,8.70
2024-05-09T02:26:22.147Z,8.99
2024-05-09T02:27:22.057Z,8.74
2024-05-09T02:28:22.041Z,8.65
2024-05-09T02:29:22.072Z,8.73
2024-05-09T02:30:30.099Z,8.62
2024-05-09T02:31:22.026Z,8.83
2024-05-09T02:32:22.221Z,9.05
2024-05-09T02:33:22.360Z,8.83
2024-05-09T02:34:22.133Z,9.05
2024-05-09T02:35:22.012Z,8.89
2024-05-09T02:36:21.970Z,8.99
2024-05-09T02:37:21.953Z,8.80
2024-05-09T02:38:21.976Z,9.07
2024-05-09T02:39:21.925Z,8.76
2024-05-09T02:40:29.126Z,8.86
2024-05-09T02:41:23.025Z,8.73
2024-05-09T02:42:21.908Z,8.87
2024-05-09T02:43:21.904Z,8.89
2024-05-09T02:44:21.934Z,8.95
2024-05-09T02:45:21.879Z,8.94
2024-05-09T02:46:21.849Z,8.86
2024-05-09T02:47:22.088Z,8.95
2024-05-09T02:48:22.187Z,8.89
2024-05-09T02:49:22.064Z,8.91
2024-05-09T02:50:29.864Z,8.74
2024-05-09T02:51:22.861Z,8.84
2024-05-09T02:52:21.835Z,8.66
2024-05-09T02:53:21.875Z,8.76
2024-05-09T02:54:21.797Z,8.74
2024-05-09T02:55:21.776Z,8.53
2024-05-09T02:56:21.818Z,8.65
2024-05-09T02:57:21.794Z,8.55
2024-05-09T02:58:21.731Z,8.50
2024-05-09T02:59:21.935Z,8.55
2024-05-09T03:00:26.504Z,8.33
2024-05-09T03:01:22.802Z,8.45
2024-05-09T03:02:21.819Z,8.18
2024-05-09T03:03:22.001Z,8.18
2024-05-09T03:04:21.879Z,8.38
2024-05-09T03:05:21.753Z,8.40
2024-05-09T03:06:21.658Z,8.68
2024-05-09T03:07:21.638Z,8.52
2024-05-09T03:08:21.749Z,8.47
2024-05-09T03:09:21.628Z,8.52
2024-05-09T03:10:25.673Z,8.58
2024-05-09T03:11:22.857Z,8.79
2024-05-09T03:12:21.649Z,8.66
2024-05-09T03:13:21.591Z,8.55
2024-05-09T03:14:21.713Z,8.45
2024-05-09T03:15:21.570Z,8.35
2024-05-09T03:16:21.548Z,8.33
2024-05-09T03:17:21.681Z,8.45
2024-05-09T03:18:21.617Z,8.61
2024-05-09T03:19:21.833Z,8.33
2024-05-09T03:20:27.330Z,8.37
2024-05-09T03:21:22.530Z,8.21
2024-05-09T03:22:21.432Z,8.62
2024-05-09T03:23:21.521Z,8.55
2024-05-09T03:24:21.478Z,8.45
2024-05-09T03:25:21.415Z,8.56
2024-05-09T03:26:21.451Z,8.47
2024-05-09T03:27:21.420Z,8.53
2024-05-09T03:28:21.425Z,8.45
2024-05-09T03:29:21.502Z,8.55
2024-05-09T03:30:29.639Z,8.55
2024-05-09T03:31:22.371Z,8.44
2024-05-09T03:32:21.587Z,8.56
2024-05-09T03:33:21.989Z,8.44
2024-05-09T03:34:21.395Z,8.45
2024-05-09T03:35:21.407Z,8.66
2024-05-09T03:36:21.314Z,8.44
2024-05-09T03:37:21.275Z,8.62
2024-05-09T03:38:21.409Z,8.61
2024-05-09T03:39:21.302Z,8.50
2024-05-09T03:40:26.330Z,8.32
2024-05-09T03:41:22.355Z,8.47
2024-05-09T03:42:21.251Z,8.53
2024-05-09T03:43:21.266Z,8.33
2024-05-09T03:44:21.366Z,8.22
2024-05-09T03:45:21.182Z,8.22
2024-05-09T03:46:21.253Z,8.10
2024-05-09T03:47:21.471Z,8.07
2024-05-09T03:48:21.507Z,8.15
2024-05-09T03:49:21.396Z,8.00
2024-05-09T03:50:26.465Z,8.00
2024-05-09T03:51:22.161Z,7.99
2024-05-09T03:52:21.124Z,7.94
2024-05-09T03:53:21.176Z,8.15
2024-05-09T03:54:21.128Z,7.91
2024-05-09T03:55:21.117Z,7.86
2024-05-09T03:56:21.164Z,7.74
2024-05-09T03:57:21.113Z,7.82
2024-05-09T03:58:21.062Z,7.91
2024-05-09T03:59:21.057Z,7.86
2024-05-09T04:00:30.546Z,8.15
2024-05-09T04:01:22.093Z,8.19
2024-05-09T04:02:21.137Z,8.28
2024-05-09T04:03:21.197Z,8.14
2024-05-09T04:04:21.097Z,8.47
2024-05-09T04:05:21.202Z,8.32
2024-05-09T04:06:20.969Z,8.19
2024-05-09T04:07:20.982Z,8.15
2024-05-09T04:08:20.978Z,8.17
2024-05-09T04:09:20.969Z,8.25
2024-05-09T04:10:27.885Z,8.37
2024-05-09T04:11:22.117Z,8.59
2024-05-09T04:12:20.954Z,8.74
2024-05-09T04:13:20.899Z,8.76
2024-05-09T04:14:20.950Z,8.77
2024-05-09T04:15:20.881Z,9.02
2024-05-09T04:16:20.874Z,8.83
2024-05-09T04:17:20.887Z,9.34
2024-05-09T04:18:20.937Z,9.05
2024-05-09T04:19:20.926Z,9.07
2024-05-09T04:20:29.535Z,9.20
2024-05-09T04:21:21.911Z,9.14
2024-05-09T04:22:20.803Z,9.34
2024-05-09T04:23:20.972Z,9.13
2024-05-09T04:24:20.786Z,8.94
2024-05-09T04:25:20.770Z,8.96
2024-05-09T04:26:20.821Z,8.91
2024-05-09T04:27:20.773Z,8.79
2024-05-09T04:28:20.768Z,8.62
2024-05-09T04:29:20.856Z,8.44
2024-05-09T04:30:26.509Z,8.71
2024-05-09T04:31:21.769Z,8.65
2024-05-09T04:32:20.807Z,8.55
2024-05-09T04:33:21.023Z,8.48
2024-05-09T04:34:20.790Z,8.52
2024-05-09T04:35:20.761Z,8.55
2024-05-09T04:36:20.666Z,8.50
2024-05-09T04:37:20.670Z,8.38
2024-05-09T04:38:20.738Z,8.55
2024-05-09T04:39:20.630Z,8.41
2024-05-09T04:40:28.210Z,8.70
2024-05-09T04:41:20.676Z,8.68
2024-05-09T04:42:20.602Z,8.53
2024-05-09T04:43:20.650Z,8.55
2024-05-09T04:44:20.627Z,8.40
2024-05-09T04:45:20.564Z,8.81
2024-05-09T04:46:20.558Z,8.68
2024-05-09T04:47:20.665Z,8.94
2024-05-09T04:48:20.658Z,8.91
2024-05-09T04:49:20.629Z,9.09
2024-05-09T04:50:29.379Z,9.01
2024-05-09T04:51:21.570Z,9.22
2024-05-09T04:52:20.505Z,9.22
2024-05-09T04:53:20.548Z,9.38
2024-05-09T04:55:20.471Z,9.53
2024-05-09T04:56:20.480Z,9.67
2024-05-09T04:57:20.443Z,9.68
2024-05-09T04:58:20.420Z,9.91
2024-05-09T04:59:20.457Z,9.86
2024-05-09T05:00:28.592Z,10.25
2024-05-09T05:01:21.506Z,10.05
2024-05-09T05:02:20.421Z,10.18
2024-05-09T05:03:20.529Z,9.99
2024-05-09T05:04:20.498Z,10.14
2024-05-09T05:05:20.432Z,10.38
2024-05-09T05:06:20.377Z,10.26
2024-05-09T05:07:20.349Z,10.62
2024-05-09T05:08:20.411Z,10.40
2024-05-09T05:09:20.395Z,10.66
2024-05-09T05:10:25.505Z,10.67
2024-05-09T05:11:21.430Z,10.62
2024-05-09T05:12:20.359Z,10.87
2024-05-09T05:13:21.576Z,10.70
2024-05-09T05:14:20.291Z,10.73
2024-05-09T05:15:20.256Z,11.03
2024-05-09T05:16:20.244Z,10.99
2024-05-09T05:17:20.404Z,10.63
2024-05-09T05:18:20.438Z,11.16
2024-05-09T05:19:20.346Z,11.24
2024-05-09T05:20:27.436Z,11.18
2024-05-09T05:21:21.425Z,11.37
2024-05-09T05:22:20.190Z,11.37
2024-05-09T05:23:20.414Z,11.47
2024-05-09T05:24:20.174Z,11.35
2024-05-09T05:25:20.176Z,11.76
2024-05-09T05:26:20.259Z,11.73
2024-05-09T05:27:20.146Z,11.49
2024-05-09T05:28:20.165Z,11.60
2024-05-09T05:29:20.903Z,11.83
2024-05-09T05:30:25.232Z,11.86
2024-05-09T05:31:21.139Z,12.12
2024-05-09T05:32:20.306Z,12.64
2024-05-09T05:33:20.603Z,12.77
2024-05-09T05:34:20.069Z,12.93
2024-05-09T05:35:20.099Z,13.14
2024-05-09T05:36:20.037Z,13.05
2024-05-09T05:37:20.027Z,13.11
2024-05-09T05:38:21.925Z,13.10
2024-05-09T05:39:20.002Z,13.38
2024-05-09T05:40:28.175Z,13.91
2024-05-09T05:41:20.076Z,14.24
2024-05-09T05:42:19.966Z,14.45
2024-05-09T05:43:19.965Z,14.97
2024-05-09T05:44:19.965Z,15.22
2024-05-09T05:45:19.938Z,15.54
2024-05-09T05:46:19.925Z,15.89
2024-05-09T05:47:20.097Z,16.07
2024-05-09T05:48:20.063Z,16.52
2024-05-09T05:49:20.171Z,16.60
2024-05-09T05:50:27.429Z,16.88
2024-05-09T05:51:20.997Z,17.11
2024-05-09T05:52:19.874Z,17.28
2024-05-09T05:53:19.927Z,17.30
2024-05-09T05:54:19.856Z,17.36
2024-05-09T05:55:19.837Z,17.77
2024-05-09T05:56:19.953Z,18.01
2024-05-09T05:57:19.847Z,18.22
2024-05-09T05:58:19.801Z,18.36
2024-05-09T05:59:19.818Z,18.11
2024-05-09T06:00:29.237Z,17.94
2024-05-09T06:01:20.898Z,17.95
2024-05-09T06:02:19.835Z,18.04
2024-05-09T06:03:19.800Z,17.83
2024-05-09T06:04:19.818Z,17.91
2024-05-09T06:05:19.760Z,17.78
2024-05-09T06:06:19.716Z,18.20
2024-05-09T06:07:19.702Z,18.33
2024-05-09T06:08:19.720Z,18.62
2024-05-09T06:09:19.691Z,18.72
2024-05-09T06:10:25.444Z,18.92
2024-05-09T06:11:19.782Z,18.98
2024-05-09T06:12:19.766Z,19.03
2024-05-09T06:13:19.659Z,18.60
2024-05-09T06:14:19.644Z,18.78
2024-05-09T06:15:19.629Z,18.65
2024-05-09T06:16:19.608Z,18.91
2024-05-09T06:17:19.749Z,18.67
2024-05-09T06:18:19.956Z,19.20
2024-05-09T06:19:19.779Z,19.73
2024-05-09T06:20:24.071Z,19.73
2024-05-09T06:21:20.769Z,19.62
2024-05-09T06:22:19.548Z,19.98
2024-05-09T06:23:19.579Z,19.99
2024-05-09T06:24:19.533Z,20.06
2024-05-09T06:25:19.556Z,20.41
2024-05-09T06:26:19.541Z,20.42
2024-05-09T06:27:19.506Z,20.57
2024-05-09T06:28:19.496Z,20.33
2024-05-09T06:29:19.583Z,20.38
2024-05-09T06:30:26.192Z,20.49
2024-05-09T06:31:20.490Z,20.33
2024-05-09T06:32:19.631Z,20.60
2024-05-09T06:33:19.673Z,20.60
2024-05-09T06:34:19.683Z,20.47
2024-05-09T06:35:19.466Z,20.47
2024-05-09T06:36:19.408Z,20.84
2024-05-09T06:37:19.416Z,20.83
2024-05-09T06:38:19.475Z,21.11
2024-05-09T06:39:19.379Z,21.29
2024-05-09T06:40:25.611Z,21.67
2024-05-09T06:41:20.429Z,21.80
2024-05-09T06:42:19.366Z,22.04
2024-05-09T06:43:20.005Z,21.72
2024-05-09T06:44:19.373Z,21.61
2024-05-09T06:45:19.320Z,21.38
2024-05-09T06:46:19.294Z,21.72
2024-05-09T06:47:19.373Z,21.79
2024-05-09T06:48:20.056Z,21.34
2024-05-09T06:49:19.442Z,21.53
2024-05-09T06:50:24.008Z,21.89
2024-05-09T06:51:20.312Z,21.97
2024-05-09T06:52:19.259Z,22.16
2024-05-09T06:53:19.294Z,22.36
2024-05-09T06:54:19.227Z,21.90
2024-05-09T06:55:19.205Z,21.44
2024-05-09T06:56:19.248Z,21.64
2024-05-09T06:57:19.186Z,21.89
2024-05-09T06:58:19.170Z,21.74
2024-05-09T06:59:19.240Z,21.87
2024-05-09T07:00:27.411Z,21.95
2024-05-09T07:01:20.270Z,21.98
2024-05-09T07:02:19.242Z,21.98
2024-05-09T07:03:19.808Z,22.53
2024-05-09T07:04:19.159Z,22.68
2024-05-09T07:05:19.165Z,22.76
2024-05-09T07:06:19.087Z,23.04
2024-05-09T07:07:19.076Z,22.76
2024-05-09T07:08:19.498Z,22.76
2024-05-09T07:09:19.056Z,22.76
2024-05-09T07:10:25.644Z,22.67
2024-05-09T07:11:19.122Z,22.44
2024-05-09T07:12:19.212Z,22.79
2024-05-09T07:13:19.013Z,23.00
2024-05-09T07:14:19.057Z,23.32
2024-05-09T07:15:18.990Z,23.20
2024-05-09T07:16:18.988Z,23.59
2024-05-09T07:17:19.110Z,23.89
2024-05-09T07:18:19.870Z,24.18
2024-05-09T07:19:19.220Z,24.12
2024-05-09T07:20:23.544Z,23.90
2024-05-09T07:21:19.980Z,23.69
2024-05-09T07:22:18.915Z,23.35
2024-05-09T07:23:19.227Z,23.71
2024-05-09T07:24:18.907Z,24.15
2024-05-09T07:25:18.885Z,23.86
2024-05-09T07:26:19.007Z,23.56
2024-05-09T07:27:18.869Z,23.35
2024-05-09T07:28:19.091Z,23.15
2024-05-09T07:29:18.930Z,23.32
2024-05-09T07:30:26.951Z,23.71
2024-05-09T07:31:19.850Z,23.83
2024-05-09T07:32:19.135Z,24.21
2024-05-09T07:33:19.884Z,24.31
2024-05-09T07:34:19.266Z,24.40
2024-05-09T07:35:18.809Z,24.13
2024-05-09T07:36:18.781Z,24.06
2024-05-09T07:37:18.772Z,24.46
2024-05-09T07:38:18.998Z,24.45
2024-05-09T07:39:18.755Z,24.71
2024-05-09T07:40:28.527Z,24.90
2024-05-09T07:41:19.822Z,25.22
2024-05-09T07:42:18.708Z,25.35
2024-05-09T07:43:18.707Z,25.32
2024-05-09T07:44:18.747Z,25.31
2024-05-09T07:45:40.232Z,25.46
2024-05-09T07:48:29.039Z,25.73
2024-05-09T07:53:38.239Z,25.39
2024-05-09T07:54:18.808Z,25.51
2024-05-09T07:55:18.934Z,25.70
2024-05-09T07:56:19.748Z,25.01
2024-05-09T07:57:18.696Z,25.12
2024-05-09T07:58:18.616Z,25.26
2024-05-09T07:59:18.529Z,25.83
2024-05-09T08:00:23.723Z,25.85
2024-05-09T08:01:19.930Z,25.14
2024-05-09T08:02:18.635Z,25.12
2024-05-09T08:03:18.648Z,25.73
2024-05-09T08:04:18.569Z,26.06
2024-05-09T08:05:18.545Z,26.57
2024-05-09T08:06:18.463Z,27.32
2024-05-09T08:07:18.488Z,27.22
2024-05-09T08:08:18.432Z,26.91
2024-05-09T08:09:21.148Z,26.84
2024-05-09T08:10:22.238Z,27.07
2024-05-09T08:11:19.520Z,27.17
2024-05-09T08:12:18.408Z,27.34
2024-05-09T08:13:18.453Z,27.55
2024-05-09T08:14:18.372Z,27.89
2024-05-09T08:15:18.360Z,27.54
2024-05-09T08:16:18.362Z,27.54
2024-05-09T08:17:18.442Z,27.31
2024-05-09T08:18:18.432Z,27.09
2024-05-09T08:19:18.364Z,27.29
2024-05-09T08:20:26.845Z,27.49
2024-05-09T08:21:19.387Z,27.44
2024-05-09T08:22:18.321Z,26.99
2024-05-09T08:23:18.293Z,27.51
2024-05-09T08:24:18.267Z,27.37
2024-05-09T08:25:18.405Z,27.44
2024-05-09T08:26:18.260Z,27.54
2024-05-09T08:27:18.252Z,27.37
2024-05-09T08:28:18.313Z,27.19
2024-05-09T08:29:18.211Z,26.74
2024-05-09T08:30:24.782Z,26.83
2024-05-09T08:31:19.364Z,27.27
2024-05-09T08:32:18.224Z,27.81
2024-05-09T08:33:18.345Z,27.92
2024-05-09T08:34:18.372Z,28.14
2024-05-09T08:35:18.160Z,28.01
2024-05-09T08:36:18.147Z,28.62
2024-05-09T08:37:22.482Z,28.39
2024-05-09T08:38:19.150Z,28.01
2024-05-09T08:39:18.119Z,28.14
2024-05-09T08:40:24.104Z,28.58
2024-05-09T08:41:19.130Z,28.92
2024-05-09T08:42:18.149Z,28.83
2024-05-09T08:43:18.082Z,28.55
2024-05-09T08:44:18.072Z,28.93
2024-05-09T08:45:18.054Z,29.07
2024-05-09T08:46:18.047Z,28.66
2024-05-09T08:47:18.081Z,28.89
2024-05-09T08:48:18.297Z,29.45
2024-05-09T08:49:18.113Z,29.62
2024-05-09T08:50:28.794Z,29.82
2024-05-09T08:51:19.018Z,29.41
2024-05-09T08:52:18.035Z,29.07
2024-05-09T08:53:18.005Z,29.05
2024-05-09T08:54:17.959Z,28.59
2024-05-09T08:55:17.955Z,28.99
2024-05-09T08:56:17.933Z,29.26
2024-05-09T08:57:17.932Z,29.29
2024-05-09T08:58:17.987Z,29.63
2024-05-09T08:59:17.902Z,29.97
2024-05-09T09:00:25.828Z,30.31
2024-05-09T09:01:19.004Z,30.13
2024-05-09T09:02:18.115Z,29.80
2024-05-09T09:03:18.041Z,29.32
2024-05-09T09:04:17.981Z,29.62
2024-05-09T09:05:18.085Z,30.00
2024-05-09T09:06:17.832Z,30.42
2024-05-09T09:07:17.853Z,30.71
2024-05-09T09:08:17.816Z,30.87
2024-05-09T09:09:17.819Z,30.38
2024-05-09T09:10:25.125Z,29.97
2024-05-09T09:11:18.841Z,30.34
2024-05-09T09:12:17.770Z,30.61
2024-05-09T09:13:17.834Z,30.91
2024-05-09T09:14:17.759Z,30.87
2024-05-09T09:15:17.745Z,30.29
2024-05-09T09:16:17.848Z,29.57
2024-05-09T09:17:17.760Z,29.82
2024-05-09T09:18:18.302Z,29.98
2024-05-09T09:19:17.892Z,30.38
2024-05-09T09:20:25.937Z,30.39
2024-05-09T09:21:18.714Z,30.45
2024-05-09T09:22:17.698Z,27.81
2024-05-09T09:23:17.658Z,27.27
2024-05-09T09:24:17.656Z,25.91
2024-05-09T09:25:17.679Z,24.86
2024-05-09T09:26:17.631Z,24.34
2024-05-09T09:27:17.621Z,24.77
2024-05-09T09:28:17.774Z,26.39
2024-05-09T09:29:17.600Z,27.19
2024-05-09T09:30:31.407Z,26.80
2024-05-09T09:31:18.693Z,27.43
2024-05-09T09:32:17.601Z,29.04
2024-05-09T09:33:17.732Z,28.37
2024-05-09T09:34:17.809Z,26.88
2024-05-09T09:35:17.547Z,26.09
2024-05-09T09:36:17.542Z,24.84
2024-05-09T09:37:17.596Z,24.16
2024-05-09T09:38:17.505Z,23.89
2024-05-09T09:39:17.490Z,23.50
2024-05-09T09:40:18.452Z,23.17
2024-05-09T09:41:17.495Z,24.09
2024-05-09T09:42:17.471Z,24.79
2024-05-09T09:43:17.538Z,24.12
2024-05-09T09:44:17.482Z,23.68
2024-05-09T09:45:17.460Z,23.62
2024-05-09T09:46:17.442Z,23.38
2024-05-09T09:47:17.484Z,23.07
2024-05-09T09:48:17.519Z,23.05
2024-05-09T09:49:17.519Z,22.95
2024-05-09T09:50:23.889Z,22.79
2024-05-09T09:51:18.429Z,23.17
2024-05-09T09:52:17.410Z,25.46
2024-05-09T09:53:17.360Z,25.90
2024-05-09T09:54:17.343Z,26.07
2024-05-09T09:55:17.391Z,26.71
2024-05-09T09:56:17.318Z,27.22
2024-05-09T09:57:17.337Z,26.88
2024-05-09T09:58:17.570Z,26.22
2024-05-09T09:59:17.294Z,25.92
2024-05-09T10:00:23.988Z,25.64
2024-05-09T10:01:18.336Z,25.27
2024-05-09T10:02:17.462Z,24.68
2024-05-09T10:03:17.352Z,24.22
2024-05-09T10:04:17.400Z,24.05
2024-05-09T10:05:17.305Z,23.74
2024-05-09T10:06:17.217Z,23.59
2024-05-09T10:07:17.282Z,23.42
2024-05-09T10:08:17.204Z,23.31
2024-05-09T10:09:17.191Z,23.00
2024-05-09T10:10:22.967Z,22.85
2024-05-09T10:11:18.267Z,22.95
2024-05-09T10:12:17.182Z,23.09
2024-05-09T10:13:17.219Z,23.02
2024-05-09T10:14:17.151Z,23.31
2024-05-09T10:15:17.122Z,24.45
2024-05-09T10:16:17.172Z,24.61
2024-05-09T10:17:17.129Z,24.62
2024-05-09T10:18:17.318Z,24.28
2024-05-09T10:19:17.154Z,24.21
2024-05-09T10:20:21.942Z,24.34
2024-05-09T10:21:18.116Z,24.18
2024-05-09T10:22:17.161Z,23.79
2024-05-09T10:23:17.040Z,24.50
2024-05-09T10:24:17.053Z,25.04
2024-05-09T10:25:17.187Z,25.05
2024-05-09T10:26:17.012Z,24.99
2024-05-09T10:27:17.000Z,24.86
2024-05-09T10:28:17.066Z,24.72
2024-05-09T10:29:17.077Z,24.55
2024-05-09T10:30:25.790Z,24.94
2024-05-09T10:31:18.049Z,25.39
2024-05-09T10:32:16.986Z,25.27
2024-05-09T10:33:17.031Z,24.90
2024-05-09T10:34:17.064Z,24.71
2024-05-09T10:35:16.917Z,24.67
2024-05-09T10:36:16.901Z,24.15
2024-05-09T10:37:17.036Z,23.99
2024-05-09T10:38:16.901Z,23.38
2024-05-09T10:39:16.873Z,23.52
2024-05-09T10:40:23.481Z,23.31
2024-05-09T10:41:17.887Z,22.88
2024-05-09T10:42:16.853Z,22.98
2024-05-09T10:43:16.970Z,23.13
2024-05-09T10:44:16.823Z,23.34
2024-05-09T10:45:16.844Z,23.57
2024-05-09T10:46:17.113Z,23.60
2024-05-09T10:47:16.823Z,23.57
2024-05-09T10:48:16.919Z,23.31
2024-05-09T10:49:16.930Z,23.38
2024-05-09T10:50:22.649Z,23.22
2024-05-09T10:51:17.808Z,23.28
2024-05-09T10:52:16.803Z,23.49
2024-05-09T10:53:16.730Z,23.52
2024-05-09T10:54:16.725Z,23.64
2024-05-09T10:55:16.771Z,25.47
2024-05-09T10:56:17.251Z,26.46
2024-05-09T10:57:16.684Z,27.99
2024-05-09T10:58:16.759Z,28.90
2024-05-09T10:59:16.662Z,29.50
2024-05-09T11:00:27.004Z,29.87
2024-05-09T11:01:17.750Z,30.32
2024-05-09T11:02:16.816Z,30.87
2024-05-09T11:03:16.713Z,31.31
2024-05-09T11:04:16.977Z,32.12
2024-05-09T11:05:16.843Z,32.70
2024-05-09T11:06:16.624Z,33.01
2024-05-09T11:07:16.623Z,32.12
2024-05-09T11:08:16.613Z,31.80
2024-05-09T11:09:16.587Z,31.11
2024-05-09T11:10:24.389Z,30.52
2024-05-09T11:11:17.617Z,31.28
2024-05-09T11:12:16.574Z,30.32
2024-05-09T11:13:16.587Z,29.32
2024-05-09T11:14:16.519Z,28.71
2024-05-09T11:15:16.526Z,28.11
2024-05-09T11:16:16.976Z,27.89
2024-05-09T11:17:16.527Z,28.36
2024-05-09T11:18:16.735Z,28.66
2024-05-09T11:19:16.645Z,28.36
2024-05-09T11:20:22.958Z,28.81
2024-05-09T11:21:17.470Z,29.17
2024-05-09T11:22:16.565Z,29.03
2024-05-09T11:23:16.429Z,29.08
2024-05-09T11:24:16.410Z,29.01
2024-05-09T11:25:16.451Z,28.24
2024-05-09T11:26:16.390Z,27.04
2024-05-09T11:27:16.380Z,26.42
2024-05-09T11:28:16.470Z,26.14
2024-05-09T11:29:19.272Z,25.58
2024-05-09T11:30:23.783Z,25.46
2024-05-09T11:31:17.650Z,25.47
2024-05-09T11:32:16.506Z,26.13
2024-05-09T11:33:16.389Z,25.82
2024-05-09T11:34:16.450Z,26.80
2024-05-09T11:35:16.353Z,27.13
2024-05-09T11:36:16.294Z,26.09
2024-05-09T11:37:16.508Z,25.87
2024-05-09T11:38:16.320Z,24.61
2024-05-09T11:39:16.262Z,24.84
2024-05-09T11:40:21.547Z,25.16
2024-05-09T11:41:17.302Z,24.89
2024-05-09T11:42:16.364Z,24.97
2024-05-09T11:43:16.364Z,24.98
2024-05-09T11:44:16.215Z,24.86
2024-05-09T11:45:16.360Z,24.65
2024-05-09T11:46:16.279Z,24.30
2024-05-09T11:47:16.255Z,24.15
2024-05-09T11:48:16.434Z,24.28
2024-05-09T11:49:16.263Z,23.96
2024-05-09T11:50:26.398Z,23.71
2024-05-09T11:51:17.163Z,23.34
2024-05-09T11:52:16.220Z,23.27
2024-05-09T11:53:16.121Z,23.15
2024-05-09T11:54:16.104Z,23.13
2024-05-09T11:55:16.179Z,23.78
2024-05-09T11:56:16.083Z,24.35
2024-05-09T11:57:16.072Z,24.53
2024-05-09T11:58:16.145Z,25.50
2024-05-09T11:59:16.054Z,25.65
2024-05-09T12:00:24.525Z,26.13
2024-05-09T12:01:16.094Z,26.35
2024-05-09T12:02:16.174Z,26.51
2024-05-09T12:03:16.062Z,26.84
2024-05-09T12:04:16.203Z,27.10
2024-05-09T12:05:16.187Z,27.41
2024-05-09T12:06:16.031Z,27.64
2024-05-09T12:07:16.060Z,27.96
2024-05-09T12:08:15.960Z,28.05
2024-05-09T12:09:15.957Z,27.96
2024-05-09T12:10:19.830Z,27.68
2024-05-09T12:11:17.071Z,27.84
2024-05-09T12:12:15.922Z,28.51
2024-05-09T12:13:15.943Z,28.93
2024-05-09T12:14:15.899Z,29.51
2024-05-09T12:15:15.969Z,29.71
2024-05-09T12:16:15.950Z,30.29
2024-05-09T12:17:15.900Z,30.52
2024-05-09T12:18:15.897Z,30.32
2024-05-09T12:19:15.956Z,30.22
2024-05-09T12:20:21.557Z,29.59
2024-05-09T12:21:16.907Z,29.51
2024-05-09T12:22:15.954Z,28.80
2024-05-09T12:23:15.813Z,29.03
2024-05-09T12:24:18.478Z,27.87
2024-05-09T12:25:15.977Z,28.31
2024-05-09T12:26:15.831Z,28.71
2024-05-09T12:27:15.779Z,29.03
2024-05-09T12:28:15.929Z,28.54
2024-05-09T12:29:15.762Z,28.33
2024-05-09T12:30:20.945Z,28.52
2024-05-09T12:31:15.779Z,28.30
2024-05-09T12:32:15.793Z,28.64
2024-05-09T12:33:15.899Z,29.03
2024-05-09T12:34:15.825Z,29.10
2024-05-09T12:35:15.770Z,28.98
2024-05-09T12:36:15.707Z,28.66
2024-05-09T12:37:15.801Z,28.80
2024-05-09T12:38:15.746Z,28.78
2024-05-09T12:39:15.688Z,27.68
2024-05-09T12:40:22.997Z,27.13
2024-05-09T12:41:16.689Z,27.32
2024-05-09T12:42:26.414Z,27.40
2024-05-09T12:43:16.739Z,27.50
2024-05-09T12:44:15.627Z,27.40
2024-05-09T12:45:15.653Z,27.73
2024-05-09T12:46:15.658Z,27.86
2024-05-09T12:47:15.674Z,27.91
2024-05-09T12:48:15.723Z,28.08
2024-05-09T12:49:17.334Z,28.51
2024-05-09T12:50:22.430Z,28.01
2024-05-09T12:51:16.587Z,27.86
2024-05-09T12:52:15.572Z,28.49
2024-05-09T12:53:15.554Z,28.70
2024-05-09T12:54:15.531Z,28.78
2024-05-09T12:55:15.667Z,28.58
2024-05-09T12:56:15.509Z,28.76
2024-05-09T12:57:15.501Z,29.03
2024-05-09T12:58:15.644Z,29.71
2024-05-09T12:59:15.494Z,29.30
2024-05-09T13:00:23.729Z,28.73
2024-05-09T13:01:16.731Z,29.50
2024-05-09T13:02:15.887Z,29.52
2024-05-09T13:03:15.642Z,28.49
2024-05-09T13:04:15.732Z,27.51
2024-05-09T13:05:15.759Z,27.25
2024-05-09T13:06:15.421Z,27.47
2024-05-09T13:07:15.590Z,27.41